Time;durP1;ratioP1;P1;durP2;ratioP2;P2;SDS_P1;SDS_P2;PMS_P1;PMS_P2;Temp;Humidity;BMP_temperature;BMP_pressure;BME280_temperature;BME280_humidity;BME280_pressure;Samples;Min_cycle;Max_cycle;Signal;HPM_P1;HPM_P2
2021/01/02 00:00:00;;;;;;;11.40;7.15;;;;;;;;;;5071611;28;20027;-71
2021/01/02 00:02:44;;;;;;;11.60;7.63;;;;;;;;;;5071163;28;20021;-70
2021/01/02 00:05:19;;;;;;;11.63;7.88;;;;;;;;;;5086517;28;20032;-71
2021/01/02 00:08:06;;;;;;;11.88;7.78;;;;;;;;;;5071108;28;20025;-70
2021/01/02 00:10:36;;;;;;;11.52;6.78;;;;;;;;;;5071125;28;20494;-70
2021/01/02 00:13:06;;;;;;;11.18;6.75;;;;;;;;;;5071039;28;20031;-70
2021/01/02 00:15:52;;;;;;;10.55;7.05;;;;;;;;;;5086500;28;20036;-70
2021/01/02 00:18:23;;;;;;;10.75;6.78;;;;;;;;;;5049593;28;20048;-71
2021/01/02 00:21:01;;;;;;;15.80;8.48;;;;;;;;;;5086585;28;20041;-71
2021/01/02 00:23:46;;;;;;;12.93;7.28;;;;;;;;;;5070959;28;20020;-69
2021/01/02 00:26:23;;;;;;;12.27;7.47;;;;;;;;;;5083873;28;20024;-70
2021/01/02 00:28:49;;;;;;;13.15;7.57;;;;;;;;;;5091028;28;20082;-74
2021/01/02 00:31:18;;;;;;;12.50;8.18;;;;;;;;;;5091031;28;20032;-75
2021/01/02 00:33:44;;;;;;;12.07;7.43;;;;;;;;;;5081702;28;20020;-73
2021/01/02 00:36:17;;;;;;;11.32;7.05;;;;;;;;;;5071319;28;20059;-72
2021/01/02 00:38:45;;;;;;;13.60;8.57;;;;;;;;;;5070612;28;20535;-74
2021/01/02 00:41:13;;;;;;;13.73;8.70;;;;;;;;;;5070716;28;20086;-72
2021/01/02 00:43:39;;;;;;;17.15;8.25;;;;;;;;;;5086243;28;20476;-72
2021/01/02 00:46:05;;;;;;;13.18;8.40;;;;;;;;;;5070740;28;20035;-71
2021/01/02 00:48:32;;;;;;;14.50;7.82;;;;;;;;;;5070573;28;20025;-74
2021/01/02 00:51:01;;;;;;;10.93;7.60;;;;;;;;;;5086668;28;20104;-69
2021/01/02 00:53:42;;;;;;;12.57;8.40;;;;;;;;;;5070820;28;20020;-68
2021/01/02 00:56:26;;;;;;;13.52;8.43;;;;;;;;;;5071664;28;20025;-70
2021/01/02 00:59:10;;;;;;;14.15;7.82;;;;;;;;;;5073985;28;20016;-71
2021/01/02 01:01:40;;;;;;;14.27;7.75;;;;;;;;;;5089693;28;20028;-72
2021/01/02 01:04:06;;;;;;;13.45;8.25;;;;;;;;;;5089665;28;20039;-70
2021/01/02 01:06:37;;;;;;;11.80;7.88;;;;;;;;;;5074082;28;20024;-71
2021/01/02 01:09:04;;;;;;;12.10;7.80;;;;;;;;;;5093475;28;20360;-71
2021/01/02 01:11:34;;;;;;;13.68;8.05;;;;;;;;;;5110233;28;20454;-71
2021/01/02 01:14:00;;;;;;;12.32;7.82;;;;;;;;;;5094394;28;20031;-70
2021/01/02 01:16:26;;;;;;;14.50;8.13;;;;;;;;;;5094250;28;20411;-70
2021/01/02 01:19:02;;;;;;;13.75;8.30;;;;;;;;;;5094129;28;20103;-70
2021/01/02 01:21:29;;;;;;;13.05;7.97;;;;;;;;;;5093924;28;20023;-69
2021/01/02 01:23:55;;;;;;;20.88;8.13;;;;;;;;;;5092797;28;20016;-70
2021/01/02 01:26:38;;;;;;;12.55;8.25;;;;;;;;;;5094809;28;20025;-70
2021/01/02 01:29:05;;;;;;;13.70;8.45;;;;;;;;;;5073754;28;20016;-70
2021/01/02 01:31:39;;;;;;;14.52;9.10;;;;;;;;;;5073885;28;20046;-69
2021/01/02 01:34:05;;;;;;;13.43;8.23;;;;;;;;;;5073637;28;20400;-69
2021/01/02 01:36:35;;;;;;;11.82;8.05;;;;;;;;;;5073693;28;20059;-70
2021/01/02 01:39:04;;;;;;;12.98;8.52;;;;;;;;;;5073395;28;20452;-71
2021/01/02 01:41:37;;;;;;;12.15;8.30;;;;;;;;;;5078591;28;20588;-70
2021/01/02 01:44:09;;;;;;;15.45;9.25;;;;;;;;;;5073407;28;20514;-69
2021/01/02 01:46:36;;;;;;;17.38;9.55;;;;;;;;;;5073428;28;20464;-75
2021/01/02 01:49:25;;;;;;;15.20;8.98;;;;;;;;;;5073078;28;20525;-75
2021/01/02 01:52:12;;;;;;;14.63;9.00;;;;;;;;;;5035410;28;20380;-74
2021/01/02 01:54:50;;;;;;;14.98;9.60;;;;;;;;;;5071746;28;20028;-76
2021/01/02 01:57:39;;;;;;;16.15;10.43;;;;;;;;;;5088643;28;20024;-74
2021/01/02 02:00:18;;;;;;;13.65;8.77;;;;;;;;;;5065079;28;20554;-73
2021/01/02 02:02:47;;;;;;;16.58;10.15;;;;;;;;;;5073127;28;20388;-72
2021/01/02 02:05:14;;;;;;;15.40;9.73;;;;;;;;;;5073115;28;20567;-72
2021/01/02 02:07:42;;;;;;;14.32;9.70;;;;;;;;;;5072184;28;20060;-72
2021/01/02 02:10:08;;;;;;;15.82;9.70;;;;;;;;;;5072990;28;20631;-72
2021/01/02 02:12:35;;;;;;;14.48;9.05;;;;;;;;;;5072959;28;20040;-69
2021/01/02 02:15:01;;;;;;;15.27;9.60;;;;;;;;;;5073396;28;20526;-68
2021/01/02 02:17:34;;;;;;;14.73;9.60;;;;;;;;;;5072778;28;20154;-69
2021/01/02 02:20:00;;;;;;;;;;;;;;;;;;5073233;28;20025;-68
2021/01/02 02:22:27;;;;;;;14.10;9.32;;;;;;;;;;5088257;28;19929;-68
2021/01/02 02:24:54;;;;;;;14.95;9.07;;;;;;;;;;5074610;28;20037;-68
2021/01/02 02:27:25;;;;;;;14.75;9.68;;;;;;;;;;5108521;28;20024;-67
2021/01/02 02:30:11;;;;;;;13.35;9.13;;;;;;;;;;5092846;28;20099;-68
2021/01/02 02:32:47;;;;;;;16.95;9.43;;;;;;;;;;5091533;28;20073;-68
2021/01/02 02:35:20;;;;;;;13.10;9.27;;;;;;;;;;5092554;28;20044;-69
2021/01/02 02:37:51;;;;;;;20.55;9.68;;;;;;;;;;5092682;28;20073;-71
2021/01/02 02:40:19;;;;;;;14.63;9.45;;;;;;;;;;5092609;28;20024;-70
2021/01/02 02:43:03;;;;;;;16.23;8.57;;;;;;;;;;5092453;28;20146;-71
2021/01/02 02:45:31;;;;;;;14.73;9.07;;;;;;;;;;5092365;28;20028;-73
2021/01/02 02:48:03;;;;;;;14.93;9.30;;;;;;;;;;5092564;28;20042;-69
2021/01/02 02:50:29;;;;;;;13.82;9.15;;;;;;;;;;5107156;28;20024;-75
2021/01/02 02:53:02;;;;;;;14.68;9.57;;;;;;;;;;5091778;28;20490;-75
2021/01/02 02:55:28;;;;;;;16.35;9.52;;;;;;;;;;5092577;28;20024;-75
2021/01/02 02:57:54;;;;;;;12.75;9.00;;;;;;;;;;5092178;28;20023;-75
2021/01/02 03:00:20;;;;;;;16.80;9.68;;;;;;;;;;5091731;28;20065;-75
2021/01/02 03:02:47;;;;;;;16.58;9.93;;;;;;;;;;5091151;28;20571;-76
2021/01/02 03:05:15;;;;;;;15.27;9.57;;;;;;;;;;5092019;28;20032;-75
2021/01/02 03:07:41;;;;;;;14.75;9.80;;;;;;;;;;5074566;28;20017;-74
2021/01/02 03:10:08;;;;;;;15.90;9.20;;;;;;;;;;5088153;28;20684;-73
2021/01/02 03:12:39;;;;;;;19.60;10.40;;;;;;;;;;5088524;28;20044;-77
2021/01/02 03:15:05;;;;;;;19.95;9.50;;;;;;;;;;5053609;28;20075;-74
2021/01/02 03:17:31;;;;;;;17.45;9.75;;;;;;;;;;5087336;28;20115;-75
2021/01/02 03:19:57;;;;;;;14.52;9.50;;;;;;;;;;5071692;28;20078;-74
2021/01/02 03:22:23;;;;;;;25.20;9.50;;;;;;;;;;5071495;28;20020;-74
2021/01/02 03:24:50;;;;;;;15.60;9.85;;;;;;;;;;5079804;28;20040;-74
2021/01/02 03:27:16;;;;;;;14.80;9.25;;;;;;;;;;5091607;28;20028;-75
2021/01/02 03:29:42;;;;;;;15.98;9.07;;;;;;;;;;5091745;28;20065;-74
2021/01/02 03:32:08;;;;;;;17.40;9.55;;;;;;;;;;5083624;28;20028;-76
2021/01/02 03:34:37;;;;;;;18.25;9.20;;;;;;;;;;5104820;27;20028;-74
2021/01/02 03:37:04;;;;;;;15.20;9.63;;;;;;;;;;5113961;27;20023;-76
2021/01/02 03:39:30;;;;;;;14.35;9.68;;;;;;;;;;5114048;27;20023;-76
2021/01/02 03:41:56;;;;;;;14.82;9.75;;;;;;;;;;5075414;28;20454;-76
2021/01/02 03:44:22;;;;;;;18.48;10.40;;;;;;;;;;5120298;27;20465;-75
2021/01/02 03:46:48;;;;;;;14.73;9.80;;;;;;;;;;5132267;27;20088;-75
2021/01/02 03:49:14;;;;;;;16.00;9.15;;;;;;;;;;5113925;27;20049;-74
2021/01/02 03:51:40;;;;;;;16.60;9.57;;;;;;;;;;5132354;27;20012;-74
2021/01/02 03:54:06;;;;;;;13.93;9.10;;;;;;;;;;5132270;27;20015;-74
2021/01/02 03:56:32;;;;;;;15.27;9.95;;;;;;;;;;5132293;27;20099;-74
2021/01/02 03:58:58;;;;;;;15.23;9.45;;;;;;;;;;5074610;28;20048;-74
2021/01/02 04:01:24;;;;;;;13.80;8.68;;;;;;;;;;5091212;28;20024;-75
2021/01/02 04:03:50;;;;;;;14.82;9.43;;;;;;;;;;5073105;28;20028;-75
2021/01/02 04:06:24;;;;;;;16.05;8.98;;;;;;;;;;5091285;28;20116;-75
2021/01/02 04:08:50;;;;;;;16.10;9.15;;;;;;;;;;5091144;28;20032;-73
2021/01/02 04:11:16;;;;;;;16.05;9.35;;;;;;;;;;5091035;28;20655;-74
2021/01/02 04:13:42;;;;;;;14.38;9.40;;;;;;;;;;5091693;28;20028;-75
2021/01/02 04:16:08;;;;;;;12.98;8.27;;;;;;;;;;5091186;28;20024;-74
2021/01/02 04:18:34;;;;;;;13.60;8.63;;;;;;;;;;5091109;28;20016;-75
2021/01/02 04:21:00;;;;;;;13.70;8.85;;;;;;;;;;5121677;28;20027;-74
2021/01/02 04:23:27;;;;;;;14.82;9.20;;;;;;;;;;5131755;28;20023;-75
2021/01/02 04:25:53;;;;;;;14.48;9.43;;;;;;;;;;5078701;28;20515;-75
2021/01/02 04:28:19;;;;;;;16.30;9.05;;;;;;;;;;5091219;28;20028;-74
2021/01/02 04:30:45;;;;;;;15.35;9.60;;;;;;;;;;5092249;28;20094;-75
2021/01/02 04:33:11;;;;;;;15.32;9.68;;;;;;;;;;5094830;28;20025;-75
2021/01/02 04:35:37;;;;;;;15.77;8.93;;;;;;;;;;5073735;28;20044;-75
2021/01/02 04:38:04;;;;;;;15.57;10.15;;;;;;;;;;5074662;28;20093;-74
2021/01/02 04:40:30;;;;;;;13.23;8.52;;;;;;;;;;5074677;28;20129;-74
2021/01/02 04:42:56;;;;;;;13.43;9.05;;;;;;;;;;5074512;28;20107;-74
2021/01/02 04:45:22;;;;;;;16.35;8.93;;;;;;;;;;5074389;28;20036;-76
2021/01/02 04:47:49;;;;;;;14.55;9.27;;;;;;;;;;5075151;28;20028;-75
2021/01/02 04:50:16;;;;;;;16.27;9.02;;;;;;;;;;5073190;28;20107;-75
2021/01/02 04:52:42;;;;;;;14.52;9.18;;;;;;;;;;5073110;28;20174;-76
2021/01/02 04:55:09;;;;;;;15.60;9.38;;;;;;;;;;5073133;28;20099;-76
2021/01/02 04:57:36;;;;;;;15.05;9.57;;;;;;;;;;5074342;28;20028;-75
2021/01/02 05:00:05;;;;;;;15.90;10.13;;;;;;;;;;5074351;28;20021;-74
2021/01/02 05:02:32;;;;;;;15.45;9.68;;;;;;;;;;5074137;28;20024;-75
2021/01/02 05:04:59;;;;;;;15.48;9.45;;;;;;;;;;5073453;28;20369;-75
2021/01/02 05:07:30;;;;;;;14.48;9.00;;;;;;;;;;5072752;28;20028;-74
2021/01/02 05:09:56;;;;;;;18.00;9.60;;;;;;;;;;5073882;28;20008;-76
2021/01/02 05:12:26;;;;;;;14.80;9.02;;;;;;;;;;5074066;28;20110;-75
2021/01/02 05:14:59;;;;;;;16.40;9.63;;;;;;;;;;5072676;28;20040;-76
2021/01/02 05:17:26;;;;;;;16.70;10.55;;;;;;;;;;5073826;28;20016;-76
2021/01/02 05:20:19;;;;;;;15.23;9.88;;;;;;;;;;5079557;28;20035;-76
2021/01/02 05:22:45;;;;;;;17.25;9.70;;;;;;;;;;5091365;28;20557;-75
2021/01/02 05:25:14;;;;;;;17.00;9.40;;;;;;;;;;5092834;28;20036;-75
2021/01/02 05:27:41;;;;;;;15.38;10.15;;;;;;;;;;5094088;28;20032;-76
2021/01/02 05:30:18;;;;;;;14.63;9.07;;;;;;;;;;5093990;28;20024;-75
2021/01/02 05:32:56;;;;;;;15.88;9.55;;;;;;;;;;5093793;28;20380;-75
2021/01/02 05:35:22;;;;;;;19.70;10.48;;;;;;;;;;5092229;28;20075;-74
2021/01/02 05:37:48;;;;;;;17.90;10.10;;;;;;;;;;5093888;28;20095;-74
2021/01/02 05:40:32;;;;;;;14.82;9.48;;;;;;;;;;5091603;28;20020;-74
2021/01/02 05:42:58;;;;;;;15.98;10.00;;;;;;;;;;5091061;28;20055;-74
2021/01/02 05:45:27;;;;;;;24.67;9.80;;;;;;;;;;5087141;28;20032;-76
2021/01/02 05:47:55;;;;;;;17.20;10.10;;;;;;;;;;5093945;28;20047;-74
2021/01/02 05:50:23;;;;;;;14.85;9.60;;;;;;;;;;5092610;28;20379;-76
2021/01/02 05:52:52;;;;;;;18.33;9.75;;;;;;;;;;5093716;28;20078;-74
2021/01/02 05:55:38;;;;;;;14.95;9.75;;;;;;;;;;5092504;28;20016;-75
2021/01/02 05:58:24;;;;;;;13.45;9.50;;;;;;;;;;5093527;28;20145;-75
2021/01/02 06:01:01;;;;;;;16.98;9.98;;;;;;;;;;5093065;28;20383;-74
2021/01/02 06:03:27;;;;;;;13.75;9.15;;;;;;;;;;5092709;28;20027;-75
2021/01/02 06:05:58;;;;;;;14.73;9.55;;;;;;;;;;5092675;28;20036;-75
2021/01/02 06:08:31;;;;;;;15.10;10.10;;;;;;;;;;5092875;28;20031;-74
2021/01/02 06:11:00;;;;;;;13.15;9.05;;;;;;;;;;5092862;28;20466;-75
2021/01/02 06:13:27;;;;;;;17.65;10.35;;;;;;;;;;5092751;28;20028;-74
2021/01/02 06:15:57;;;;;;;17.08;9.85;;;;;;;;;;5092693;28;20016;-75
2021/01/02 06:18:23;;;;;;;16.85;10.15;;;;;;;;;;5092401;28;20028;-76
2021/01/02 06:20:49;;;;;;;14.95;9.70;;;;;;;;;;5092573;28;20016;-75
2021/01/02 06:23:17;;;;;;;20.65;10.50;;;;;;;;;;5091036;28;20024;-76
2021/01/02 06:25:43;;;;;;;16.73;10.68;;;;;;;;;;5090963;28;20028;-76
2021/01/02 06:28:09;;;;;;;14.63;9.93;;;;;;;;;;5091060;28;20024;-75
2021/01/02 06:30:35;;;;;;;13.30;9.32;;;;;;;;;;5091402;28;20021;-75
2021/01/02 06:33:01;;;;;;;16.15;9.70;;;;;;;;;;5091654;28;20020;-74
2021/01/02 06:35:27;;;;;;;15.23;10.10;;;;;;;;;;5091471;28;20131;-76
2021/01/02 06:37:56;;;;;;;16.00;9.75;;;;;;;;;;5091791;28;20020;-75
2021/01/02 06:40:24;;;;;;;16.23;9.00;;;;;;;;;;5092852;28;20024;-74
2021/01/02 06:42:57;;;;;;;13.40;9.40;;;;;;;;;;5093000;28;20382;-74
2021/01/02 06:45:38;;;;;;;16.80;10.05;;;;;;;;;;5092523;28;20036;-75
2021/01/02 06:48:13;;;;;;;14.43;9.63;;;;;;;;;;5092693;28;20025;-74
2021/01/02 06:50:40;;;;;;;13.68;8.90;;;;;;;;;;5092439;28;20479;-75
2021/01/02 06:53:25;;;;;;;15.15;9.40;;;;;;;;;;5092683;28;20024;-75
2021/01/02 06:56:00;;;;;;;14.02;8.93;;;;;;;;;;5092621;28;20047;-75
2021/01/02 06:58:35;;;;;;;15.38;9.80;;;;;;;;;;5092512;28;20031;-76
2021/01/02 07:01:05;;;;;;;16.15;10.50;;;;;;;;;;5091051;28;20042;-75
2021/01/02 07:03:52;;;;;;;15.23;9.85;;;;;;;;;;5092528;28;20026;-74
2021/01/02 07:06:18;;;;;;;13.63;9.00;;;;;;;;;;5092535;28;20234;-76
2021/01/02 07:08:48;;;;;;;12.88;8.68;;;;;;;;;;5092396;28;20019;-76
2021/01/02 07:11:30;;;;;;;13.05;7.75;;;;;;;;;;5092378;28;20073;-76
2021/01/02 07:14:17;;;;;;;14.55;8.23;;;;;;;;;;5090870;28;20402;-76
2021/01/02 07:16:49;;;;;;;12.60;7.93;;;;;;;;;;5092032;28;20023;-75
2021/01/02 07:19:29;;;;;;;13.65;8.07;;;;;;;;;;5092144;28;20456;-76
2021/01/02 07:22:00;;;;;;;14.48;8.55;;;;;;;;;;5090981;28;20055;-76
2021/01/02 07:24:27;;;;;;;12.13;8.00;;;;;;;;;;5089625;28;20024;-76
2021/01/02 07:26:57;;;;;;;10.98;7.70;;;;;;;;;;5092044;28;20023;-74
2021/01/02 07:29:23;;;;;;;11.50;7.45;;;;;;;;;;5090768;28;20023;-76
2021/01/02 07:31:49;;;;;;;12.45;7.05;;;;;;;;;;5091860;28;20501;-77
2021/01/02 07:34:18;;;;;;;10.65;6.72;;;;;;;;;;5091578;28;20079;-75
2021/01/02 07:36:45;;;;;;;12.27;7.40;;;;;;;;;;5091808;28;20066;-75
2021/01/02 07:39:12;;;;;;;10.75;7.20;;;;;;;;;;5091809;28;20024;-75
2021/01/02 07:41:39;;;;;;;12.00;7.20;;;;;;;;;;5073604;28;20024;-74
2021/01/02 07:44:06;;;;;;;12.20;7.68;;;;;;;;;;5091753;28;20020;-75
2021/01/02 07:46:32;;;;;;;9.93;6.60;;;;;;;;;;5091739;28;20491;-74
2021/01/02 07:48:58;;;;;;;11.10;7.07;;;;;;;;;;5091801;28;20024;-76
2021/01/02 07:51:25;;;;;;;11.05;6.60;;;;;;;;;;5091655;28;20409;-75
2021/01/02 07:53:53;;;;;;;9.27;6.65;;;;;;;;;;5091737;28;20024;-75
2021/01/02 07:56:35;;;;;;;10.32;6.13;;;;;;;;;;5073654;28;20035;-77
2021/01/02 07:59:20;;;;;;;10.10;6.50;;;;;;;;;;5091390;28;20486;-75
2021/01/02 08:01:53;;;;;;;10.13;6.45;;;;;;;;;;5091439;28;20450;-76
2021/01/02 08:04:19;;;;;;;10.55;6.70;;;;;;;;;;5091450;28;20054;-76
2021/01/02 08:06:47;;;;;;;11.18;6.90;;;;;;;;;;5093685;28;20506;-74
2021/01/02 08:09:13;;;;;;;10.95;6.30;;;;;;;;;;5095829;28;20032;-76
2021/01/02 08:11:46;;;;;;;9.43;6.25;;;;;;;;;;5095498;28;20386;-75
2021/01/02 08:14:12;;;;;;;10.27;6.28;;;;;;;;;;5095492;28;20040;-76
2021/01/02 08:16:38;;;;;;;9.02;6.13;;;;;;;;;;5095565;28;20040;-75
2021/01/02 08:19:05;;;;;;;8.90;5.75;;;;;;;;;;5095486;28;20037;-74
2021/01/02 08:21:40;;;;;;;8.63;5.75;;;;;;;;;;5095305;28;20024;-76
2021/01/02 08:24:06;;;;;;;10.27;6.00;;;;;;;;;;5095382;28;20024;-75
2021/01/02 08:26:33;;;;;;;9.45;6.03;;;;;;;;;;5076996;28;20111;-75
2021/01/02 08:29:00;;;;;;;11.15;5.88;;;;;;;;;;5094694;28;20644;-75
2021/01/02 08:31:26;;;;;;;8.85;5.93;;;;;;;;;;5094745;28;20414;-76
2021/01/02 08:33:52;;;;;;;8.60;5.63;;;;;;;;;;5076455;28;20020;-75
2021/01/02 08:36:19;;;;;;;8.90;6.05;;;;;;;;;;5094652;28;20166;-75
2021/01/02 08:39:00;;;;;;;9.73;6.13;;;;;;;;;;5094780;28;20125;-76
2021/01/02 08:41:27;;;;;;;8.00;5.28;;;;;;;;;;5094478;28;20506;-76
2021/01/02 08:43:56;;;;;;;10.55;5.68;;;;;;;;;;5094558;28;20107;-76
2021/01/02 08:46:26;;;;;;;8.43;5.40;;;;;;;;;;5093110;28;20221;-74
2021/01/02 08:48:52;;;;;;;8.82;5.50;;;;;;;;;;5094516;28;20027;-76
2021/01/02 08:51:25;;;;;;;8.65;5.22;;;;;;;;;;5094476;28;20020;-75
2021/01/02 08:53:51;;;;;;;9.50;5.47;;;;;;;;;;5094331;28;20016;-74
2021/01/02 08:56:20;;;;;;;7.80;5.07;;;;;;;;;;5094269;28;20038;-74
2021/01/02 08:58:46;;;;;;;8.60;5.65;;;;;;;;;;5094191;28;20093;-75
2021/01/02 09:01:12;;;;;;;8.38;5.45;;;;;;;;;;5094071;28;20028;-76
2021/01/02 09:03:38;;;;;;;9.98;5.60;;;;;;;;;;5094248;28;20502;-74
2021/01/02 09:06:18;;;;;;;9.70;5.28;;;;;;;;;;5109736;28;20494;-75
2021/01/02 09:08:44;;;;;;;8.80;5.72;;;;;;;;;;5093923;28;20063;-76
2021/01/02 09:11:10;;;;;;;8.77;5.65;;;;;;;;;;5093776;28;20028;-74
2021/01/02 09:13:36;;;;;;;9.88;5.47;;;;;;;;;;5093681;28;20603;-74
2021/01/02 09:16:06;;;;;;;8.18;5.20;;;;;;;;;;5093917;28;20050;-77
2021/01/02 09:18:32;;;;;;;7.60;5.03;;;;;;;;;;5094141;28;20356;-77
2021/01/02 09:20:58;;;;;;;7.28;4.63;;;;;;;;;;5094345;28;20487;-77
2021/01/02 09:23:30;;;;;;;7.50;4.88;;;;;;;;;;5094194;28;20074;-75
2021/01/02 09:25:56;;;;;;;7.70;4.82;;;;;;;;;;5094124;28;20039;-76
2021/01/02 09:28:22;;;;;;;8.35;4.88;;;;;;;;;;5110045;28;20028;-75
2021/01/02 09:30:49;;;;;;;8.65;5.50;;;;;;;;;;5110024;28;20034;-75
2021/01/02 09:33:16;;;;;;;8.55;5.15;;;;;;;;;;5109663;28;20020;-75
2021/01/02 09:35:42;;;;;;;12.02;5.50;;;;;;;;;;5093794;28;20032;-76
2021/01/02 09:38:09;;;;;;;7.65;4.90;;;;;;;;;;5094172;28;20034;-76
2021/01/02 09:40:36;;;;;;;7.65;5.00;;;;;;;;;;5094130;28;20051;-75
2021/01/02 09:43:03;;;;;;;10.98;5.18;;;;;;;;;;5109300;28;20024;-76
2021/01/02 09:45:29;;;;;;;8.63;4.90;;;;;;;;;;5093611;28;20541;-74
2021/01/02 09:47:55;;;;;;;8.88;4.28;;;;;;;;;;5093756;28;20095;-76
2021/01/02 09:50:21;;;;;;;7.82;5.03;;;;;;;;;;5093835;28;20024;-76
2021/01/02 09:52:47;;;;;;;7.40;4.72;;;;;;;;;;5093831;28;20023;-77
2021/01/02 09:55:14;;;;;;;9.45;4.50;;;;;;;;;;5093104;28;20173;-76
2021/01/02 09:57:40;;;;;;;7.75;4.30;;;;;;;;;;5093076;28;20016;-76
2021/01/02 10:00:07;;;;;;;7.70;4.82;;;;;;;;;;5108526;28;20035;-75
2021/01/02 10:02:33;;;;;;;6.45;3.90;;;;;;;;;;5090427;28;20027;-75
2021/01/02 10:04:59;;;;;;;7.05;4.13;;;;;;;;;;5092973;28;20044;-75
2021/01/02 10:07:25;;;;;;;7.95;4.60;;;;;;;;;;5093031;28;20020;-76
2021/01/02 10:09:51;;;;;;;6.05;3.60;;;;;;;;;;5092789;28;20070;-75
2021/01/02 10:12:19;;;;;;;10.00;4.63;;;;;;;;;;5092946;28;20024;-76
2021/01/02 10:14:45;;;;;;;6.65;4.65;;;;;;;;;;5092955;28;20017;-75
2021/01/02 10:17:12;;;;;;;9.15;4.80;;;;;;;;;;5092919;28;20024;-75
2021/01/02 10:19:42;;;;;;;9.07;4.68;;;;;;;;;;5074718;28;20017;-75
2021/01/02 10:22:08;;;;;;;7.68;4.90;;;;;;;;;;5077360;28;20032;-75
2021/01/02 10:24:35;;;;;;;9.25;4.50;;;;;;;;;;5090261;28;20036;-76
2021/01/02 10:27:01;;;;;;;6.78;4.20;;;;;;;;;;5088165;28;20495;-75
2021/01/02 10:29:27;;;;;;;7.55;3.90;;;;;;;;;;5072352;28;20024;-76
2021/01/02 10:31:57;;;;;;;7.57;3.60;;;;;;;;;;5072605;28;20016;-75
2021/01/02 10:34:23;;;;;;;7.18;3.80;;;;;;;;;;5072460;28;20024;-75
2021/01/02 10:36:49;;;;;;;11.18;4.32;;;;;;;;;;5072370;28;20085;-75
2021/01/02 10:39:15;;;;;;;6.85;4.15;;;;;;;;;;5072503;28;20024;-75
2021/01/02 10:41:41;;;;;;;9.18;4.20;;;;;;;;;;5072273;28;20024;-75
2021/01/02 10:44:07;;;;;;;7.30;4.50;;;;;;;;;;5072254;28;20028;-75
2021/01/02 10:46:33;;;;;;;10.20;4.05;;;;;;;;;;5072716;28;20038;-75
2021/01/02 10:48:59;;;;;;;8.38;3.70;;;;;;;;;;5072344;28;20024;-72
2021/01/02 10:51:25;;;;;;;9.32;4.43;;;;;;;;;;5087741;28;20031;-74
2021/01/02 10:53:51;;;;;;;8.35;4.18;;;;;;;;;;5072105;28;20031;-72
2021/01/02 10:56:19;;;;;;;11.32;4.80;;;;;;;;;;5087578;28;20058;-70
2021/01/02 10:58:45;;;;;;;8.23;4.10;;;;;;;;;;5071723;28;20023;-76
2021/01/02 11:01:12;;;;;;;8.65;3.88;;;;;;;;;;5071809;28;20056;-75
2021/01/02 11:03:38;;;;;;;7.43;3.88;;;;;;;;;;5088184;28;20115;-68
2021/01/02 11:06:08;;;;;;;6.13;4.00;;;;;;;;;;5071675;28;20033;-73
2021/01/02 11:08:34;;;;;;;8.95;4.00;;;;;;;;;;5071562;28;20021;-73
2021/01/02 11:11:01;;;;;;;6.78;3.72;;;;;;;;;;5087206;28;20025;-74
2021/01/02 11:13:27;;;;;;;10.25;4.10;;;;;;;;;;5071831;28;20031;-74
2021/01/02 11:15:53;;;;;;;5.95;3.63;;;;;;;;;;5071652;28;20021;-74
2021/01/02 11:18:19;;;;;;;6.07;3.85;;;;;;;;;;5087262;28;20028;-75
2021/01/02 11:20:46;;;;;;;7.15;3.80;;;;;;;;;;5072082;28;20047;-73
2021/01/02 11:23:13;;;;;;;7.57;3.47;;;;;;;;;;5071421;28;20025;-74
2021/01/02 11:25:39;;;;;;;5.72;3.25;;;;;;;;;;5071304;28;20085;-70
2021/01/02 11:28:05;;;;;;;6.72;4.07;;;;;;;;;;5071566;28;20074;-71
2021/01/02 11:30:31;;;;;;;6.88;3.90;;;;;;;;;;5087093;28;20028;-70
2021/01/02 11:32:57;;;;;;;6.85;3.35;;;;;;;;;;5071413;28;20028;-71
2021/01/02 11:35:23;;;;;;;8.27;3.60;;;;;;;;;;5071348;28;20045;-69
2021/01/02 11:37:49;;;;;;;6.65;3.35;;;;;;;;;;5072106;28;20020;-73
2021/01/02 11:40:16;;;;;;;6.05;3.60;;;;;;;;;;5087031;28;20037;-74
2021/01/02 11:42:42;;;;;;;5.78;3.50;;;;;;;;;;5071325;28;20059;-74
2021/01/02 11:45:11;;;;;;;6.47;3.70;;;;;;;;;;5071310;28;20111;-74
2021/01/02 11:47:37;;;;;;;6.72;3.63;;;;;;;;;;5086867;28;20115;-74
2021/01/02 11:50:04;;;;;;;6.57;3.70;;;;;;;;;;5071497;28;20028;-75
2021/01/02 11:52:30;;;;;;;6.28;3.47;;;;;;;;;;5071188;28;20021;-74
2021/01/02 11:54:56;;;;;;;6.93;3.33;;;;;;;;;;5071943;28;20031;-75
2021/01/02 11:57:22;;;;;;;6.75;4.13;;;;;;;;;;5071415;28;20710;-75
2021/01/02 11:59:48;;;;;;;5.38;3.25;;;;;;;;;;5071275;28;20522;-75
2021/01/02 12:02:14;;;;;;;6.53;3.53;;;;;;;;;;5071312;28;20480;-76
2021/01/02 12:04:40;;;;;;;5.57;3.42;;;;;;;;;;5071008;28;20020;-75
2021/01/02 12:07:06;;;;;;;5.72;3.58;;;;;;;;;;5086643;28;20078;-75
2021/01/02 12:09:32;;;;;;;5.70;3.10;;;;;;;;;;5071145;28;20021;-75
2021/01/02 12:11:59;;;;;;;4.78;3.00;;;;;;;;;;5071794;28;20021;-75
2021/01/02 12:14:27;;;;;;;5.05;3.00;;;;;;;;;;5071129;28;20025;-74
2021/01/02 12:16:54;;;;;;;5.32;3.00;;;;;;;;;;5070936;28;20017;-76
2021/01/02 12:19:21;;;;;;;5.70;3.13;;;;;;;;;;5071164;28;20021;-72
2021/01/02 12:21:47;;;;;;;5.63;2.83;;;;;;;;;;5071020;28;20071;-70
2021/01/02 12:24:14;;;;;;;5.93;3.30;;;;;;;;;;5070886;28;20016;-69
2021/01/02 12:26:47;;;;;;;6.35;3.03;;;;;;;;;;5070945;28;20032;-71
2021/01/02 12:29:15;;;;;;;7.78;3.35;;;;;;;;;;5071391;28;20020;-72
2021/01/02 12:31:42;;;;;;;6.38;3.33;;;;;;;;;;5070870;28;20227;-73
2021/01/02 12:34:09;;;;;;;5.60;2.90;;;;;;;;;;5086276;28;20055;-68
2021/01/02 12:36:36;;;;;;;6.03;2.97;;;;;;;;;;5070638;28;20119;-70
2021/01/02 12:39:03;;;;;;;5.53;3.03;;;;;;;;;;5070790;28;20021;-70
2021/01/02 12:41:29;;;;;;;5.25;3.03;;;;;;;;;;5070702;28;20024;-69
2021/01/02 12:43:55;;;;;;;5.18;2.85;;;;;;;;;;5086277;28;20028;-70
2021/01/02 12:46:21;;;;;;;6.65;3.20;;;;;;;;;;5086864;28;20175;-69
2021/01/02 12:48:48;;;;;;;5.20;3.08;;;;;;;;;;5086492;28;20387;-70
2021/01/02 12:51:18;;;;;;;5.15;3.08;;;;;;;;;;5070790;28;20028;-70
2021/01/02 12:53:44;;;;;;;4.70;2.65;;;;;;;;;;5074063;28;20021;-70
2021/01/02 12:56:10;;;;;;;5.40;3.10;;;;;;;;;;5074462;28;20099;-69
2021/01/02 12:58:36;;;;;;;5.10;2.85;;;;;;;;;;5074479;28;20017;-70
2021/01/02 13:01:02;;;;;;;6.00;3.25;;;;;;;;;;5089940;28;20025;-70
2021/01/02 13:03:28;;;;;;;5.15;3.03;;;;;;;;;;5090358;28;20025;-69
2021/01/02 13:05:54;;;;;;;5.47;3.13;;;;;;;;;;5073948;28;20072;-71
2021/01/02 13:08:20;;;;;;;5.13;2.90;;;;;;;;;;5074125;28;20021;-70
2021/01/02 13:10:46;;;;;;;5.70;3.20;;;;;;;;;;5074059;28;20024;-70
2021/01/02 13:13:13;;;;;;;5.57;3.17;;;;;;;;;;5089627;28;20111;-70
2021/01/02 13:15:39;;;;;;;5.63;3.13;;;;;;;;;;5077767;28;20012;-68
2021/01/02 13:18:05;;;;;;;5.63;2.97;;;;;;;;;;5094275;28;20024;-70
2021/01/02 13:20:31;;;;;;;5.32;3.25;;;;;;;;;;5109114;28;20031;-70
2021/01/02 13:22:57;;;;;;;6.57;3.38;;;;;;;;;;5094042;28;20471;-70
2021/01/02 13:25:23;;;;;;;7.28;3.85;;;;;;;;;;5093882;28;20032;-69
2021/01/02 13:27:49;;;;;;;5.65;3.10;;;;;;;;;;5094047;28;20016;-70
2021/01/02 13:30:16;;;;;;;6.35;3.65;;;;;;;;;;5094211;28;20049;-70
2021/01/02 13:32:42;;;;;;;7.97;3.30;;;;;;;;;;5093935;28;20043;-71
2021/01/02 13:35:08;;;;;;;6.75;3.60;;;;;;;;;;5095634;28;20044;-72
2021/01/02 13:37:34;;;;;;;5.85;3.45;;;;;;;;;;5092956;28;20024;-73
2021/01/02 13:40:01;;;;;;;7.03;3.78;;;;;;;;;;5109582;28;20043;-72
2021/01/02 13:42:27;;;;;;;5.75;3.45;;;;;;;;;;5109605;28;20024;-72
2021/01/02 13:44:53;;;;;;;5.20;3.15;;;;;;;;;;5109506;28;20493;-73
2021/01/02 13:47:20;;;;;;;8.65;3.88;;;;;;;;;;5093693;28;20020;-73
2021/01/02 13:49:47;;;;;;;6.90;3.47;;;;;;;;;;5093384;28;20020;-73
2021/01/02 13:52:13;;;;;;;7.15;3.33;;;;;;;;;;5093440;28;20031;-72
2021/01/02 13:54:39;;;;;;;7.32;3.72;;;;;;;;;;5103095;28;20071;-73
2021/01/02 13:57:05;;;;;;;8.30;3.53;;;;;;;;;;5097229;28;20391;-72
2021/01/02 13:59:31;;;;;;;6.93;3.80;;;;;;;;;;5075298;28;20448;-72
2021/01/02 14:02:00;;;;;;;9.13;4.05;;;;;;;;;;5093274;28;20032;-71
2021/01/02 14:04:26;;;;;;;7.25;4.05;;;;;;;;;;5092164;28;20069;-75
2021/01/02 14:06:54;;;;;;;8.15;3.70;;;;;;;;;;5093324;28;20028;-79
2021/01/02 14:09:21;;;;;;;6.25;3.92;;;;;;;;;;5075002;28;20069;-74
2021/01/02 14:11:47;;;;;;;6.80;3.83;;;;;;;;;;5061995;28;20063;-76
2021/01/02 14:14:13;;;;;;;7.22;4.10;;;;;;;;;;5072910;28;20032;-73
2021/01/02 14:16:46;;;;;;;7.78;4.18;;;;;;;;;;5085314;28;20020;-73
2021/01/02 14:19:12;;;;;;;7.65;4.03;;;;;;;;;;5108718;28;20017;-75
2021/01/02 14:21:42;;;;;;;7.07;4.22;;;;;;;;;;5092833;28;20034;-75
2021/01/02 14:24:09;;;;;;;6.72;3.58;;;;;;;;;;5074605;28;20383;-71
2021/01/02 14:26:35;;;;;;;6.47;3.83;;;;;;;;;;5092994;28;20036;-71
2021/01/02 14:29:02;;;;;;;13.25;3.53;;;;;;;;;;5078049;28;20049;-72
2021/01/02 14:31:32;;;;;;;8.27;3.65;;;;;;;;;;5072724;28;20055;-73
2021/01/02 14:33:58;;;;;;;6.82;4.03;;;;;;;;;;5072631;28;20032;-73
2021/01/02 14:36:24;;;;;;;8.15;4.00;;;;;;;;;;5072481;28;20048;-73
2021/01/02 14:38:50;;;;;;;7.28;3.88;;;;;;;;;;5072475;28;20485;-74
2021/01/02 14:41:23;;;;;;;7.40;4.13;;;;;;;;;;5072414;28;20030;-71
2021/01/02 14:43:49;;;;;;;7.78;4.00;;;;;;;;;;5072137;28;20027;-68